Aérodrome :
LOGIN :

S'inscrire | Disclaimer

   EN    FR    IT 

 










Légende :    VFR   VFR Marginal   IFR   IFR Intensif   IFR Très Intensif
Visi : 
Plafond : 
>= 8 km
>= 3000ft
5 à 8 km
1000 à 3000 ft
1500m à 5 km
500 à 1000 ft
800 à 1500m
200 à 500 ft
< 800m
< 200 ft
Symboles :   Orages  Brouillard  Fortes neiges  Fortes précipitations  Vent > 20 kt
SIGMETs :   Divers  Orages  Givrage  Turbulence  Onde Orograph.  Cendres Volcan.






- Altitude de l'aérodrome : 220 ft
- Code IATA : CWL


EGFF - Cardiff Rhoose

DERNIER METAR :
  • 051020Z AUTO 12018KT 9999 NCD 14/06 Q1009

METARs EXPIRÉS :
  • 050950Z AUTO 12015KT 9999 NCD 14/07 Q1010
  • 050920Z AUTO 12014KT 9999 NCD 12/07 Q1010
  • 050850Z AUTO 12015KT 9999 NCD 11/06 Q1010
  • 050820Z AUTO 12017KT 9999 NCD 10/05 Q1010
  • 050750Z AUTO 11014KT 9999 NCD 10/05 Q1011
  • 050720Z AUTO 11013KT 9999 NCD 10/05 Q1011

TAF TAF EGFF
Valide du 05 à 06h jusqu'au 06 à 06h UTC


050458Z 0506/0606 10012KT CAVOK
BECMG 0506/0509 16013KT
TEMPO 0509/0521 16016G26KT
BECMG 0518/0521 BKN040
TEMPO 0521/0606 7000 -RA BKN014
PROB30
TEMPO 0521/0606 4000 RADZ BKN008
BECMG 0600/0603 25013KT
ATIS : +44 1446 729 319



MET'MAP, la Météo Aéronautique d'un coup d'oeil ! - Copyright ORBIFLY Décembre 2007 - Disclaimer

ORBIFLY MET'MAP TEAM :

Programmation & Développement : Alexandra Zaïnal
Sur une idée originale de : Baudouin d'Aumeries
Assistance à la programmation : Marc-Olivier Méhu
Soutien technique & logistique : Manuel Goepfert

Contact : metmap@orbifly.com




SOURCES & CREDITS :

   NOAA